Time;durP1;ratioP1;P1;durP2;ratioP2;P2;SDS_P1;SDS_P2;PMS_P1;PMS_P2;Temp;Humidity;BMP_temperature;BMP_pressure;BME280_temperature;BME280_humidity;BME280_pressure;Samples;Min_cycle;Max_cycle;Signal;HPM_P1;HPM_P2
2023/05/28 00:01:36;;;;;;;;;;;;;;;20.38;57.62;99216.72;5034047;28;19909;-76
2023/05/28 00:04:02;;;;;;;;;;;;;;;20.33;57.71;99221.22;5035072;28;19909;-76
2023/05/28 00:06:27;;;;;;;;;;;;;;;20.31;57.85;99210.75;5035185;28;20035;-77
2023/05/28 00:08:52;;;;;;;;;;;;;;;20.30;58.02;99209.94;5035327;28;19913;-77
2023/05/28 00:11:18;;;;;;;;;;;;;;;20.31;57.72;99208.06;5034560;28;19913;-78
2023/05/28 00:13:43;;;;;;;;;;;;;;;20.32;57.68;99207.00;5034852;28;19915;-77
2023/05/28 00:16:08;;;;;;;;;;;;;;;20.32;57.70;99207.00;5034798;28;19960;-78
2023/05/28 00:18:33;;;;;;;;;;;;;;;20.36;57.19;99207.31;5035537;28;19912;-78
2023/05/28 00:21:00;;;;;;;;;;;;;;;20.33;57.66;99205.94;5033426;28;19917;-78
2023/05/28 00:23:26;;;;;;;;;;;;;;;20.34;57.71;99207.56;5034685;28;20406;-78
2023/05/28 00:25:51;;;;;;;;;;;;;;;20.28;57.77;99206.69;5034602;28;19913;-78
2023/05/28 00:28:16;;;;;;;;;;;;;;;20.28;57.81;99203.19;5034621;28;19917;-78
2023/05/28 00:30:42;;;;;;;;;;;;;;;20.21;58.77;99200.72;5034460;28;20378;-78
2023/05/28 00:33:07;;;;;;;;;;;;;;;20.19;57.85;99194.78;5034481;28;19909;-78
2023/05/28 00:35:32;;;;;;;;;;;;;;;20.17;58.67;99188.03;5033285;28;19959;-78
2023/05/28 00:37:57;;;;;;;;;;;;;;;20.10;59.39;99193.59;5034028;28;19933;-78
2023/05/28 00:40:23;;;;;;;;;;;;;;;20.03;59.20;99187.56;5033726;28;20015;-78
2023/05/28 00:42:48;;;;;;;;;;;;;;;19.95;59.52;99186.13;5033726;28;20294;-78
2023/05/28 00:45:14;;;;;;;;;;;;;;;19.84;59.99;99184.38;5033782;28;19909;-78
2023/05/28 00:47:40;;;;;;;;;;;;;;;19.86;60.48;99181.44;5033908;28;20374;-77
2023/05/28 00:50:09;;;;;;;;;;;;;;;19.72;61.82;99181.00;5033507;28;19913;-77
2023/05/28 00:52:37;;;;;;;;;;;;;;;19.66;61.01;99177.44;5033744;28;19909;-77
2023/05/28 00:55:10;;;;;;;;;;;;;;;19.68;61.36;99180.66;5034415;28;19901;-78
2023/05/28 00:57:36;;;;;;;;;;;;;;;19.58;61.91;99182.38;5034292;28;19916;-76
2023/05/28 01:00:04;;;;;;;;;;;;;;;19.61;61.26;99173.88;5033024;28;20369;-78
2023/05/28 01:02:29;;;;;;;;;;;;;;;19.63;60.52;99169.88;5033997;28;19909;-78
2023/05/28 01:04:55;;;;;;;;;;;;;;;19.58;60.77;99169.00;5033799;28;19963;-77
2023/05/28 01:07:20;;;;;;;;;;;;;;;19.49;61.87;99165.91;5033647;28;19934;-78
2023/05/28 01:09:45;;;;;;;;;;;;;;;19.44;62.42;99167.69;5033344;28;20393;-77
2023/05/28 01:12:11;;;;;;;;;;;;;;;19.39;64.39;99168.41;5033624;28;20001;-77
2023/05/28 01:14:37;;;;;;;;;;;;;;;19.35;62.58;99167.28;5033417;28;20378;-76
2023/05/28 01:17:05;;;;;;;;;;;;;;;19.33;63.98;99175.56;5033041;28;19916;-78
2023/05/28 01:19:31;;;;;;;;;;;;;;;19.31;63.94;99169.59;5033226;28;19967;-78
2023/05/28 01:22:01;;;;;;;;;;;;;;;19.30;63.70;99181.38;5033715;28;19959;-77
2023/05/28 01:24:28;;;;;;;;;;;;;;;19.34;62.20;99174.50;5034172;28;19958;-77
2023/05/28 01:26:54;;;;;;;;;;;;;;;19.38;62.71;99163.31;5033387;28;19905;-76
2023/05/28 01:29:19;;;;;;;;;;;;;;;19.41;62.72;99158.28;5033163;28;20414;-78
2023/05/28 01:31:45;;;;;;;;;;;;;;;19.42;63.44;99159.09;5033206;28;19979;-77
2023/05/28 01:34:11;;;;;;;;;;;;;;;19.43;62.44;99155.34;5033308;28;20370;-77
2023/05/28 01:36:38;;;;;;;;;;;;;;;19.37;61.96;99159.81;5033384;28;19992;-78
2023/05/28 01:39:04;;;;;;;;;;;;;;;19.33;62.75;99164.03;5033190;28;19959;-77
2023/05/28 01:41:30;;;;;;;;;;;;;;;19.21;63.85;99165.97;5033469;28;19901;-77
2023/05/28 01:43:56;;;;;;;;;;;;;;;19.17;63.12;99165.63;5033173;28;19915;-78
2023/05/28 01:46:22;;;;;;;;;;;;;;;19.17;63.44;99159.47;5033191;28;19916;-77
2023/05/28 01:48:47;;;;;;;;;;;;;;;19.22;63.02;99164.91;5033053;28;19909;-77
2023/05/28 01:51:16;;;;;;;;;;;;;;;19.18;63.04;99164.59;5032924;28;19966;-78
2023/05/28 01:53:41;;;;;;;;;;;;;;;19.18;63.59;99169.94;5032571;28;19909;-77
2023/05/28 01:56:07;;;;;;;;;;;;;;;19.22;62.95;99170.25;5031167;28;20397;-78
2023/05/28 01:58:33;;;;;;;;;;;;;;;19.25;63.31;99172.44;5031111;28;19909;-77
2023/05/28 02:01:10;;;;;;;;;;;;;;;19.16;64.95;99173.91;5031023;28;19919;-78
2023/05/28 02:03:35;;;;;;;;;;;;;;;19.14;63.51;99179.50;5032327;28;20002;-77
2023/05/28 02:06:01;;;;;;;;;;;;;;;19.15;62.95;99177.63;5031395;28;19956;-77
2023/05/28 02:08:26;;;;;;;;;;;;;;;19.16;63.16;99184.63;5032921;28;19909;-77
2023/05/28 02:10:52;;;;;;;;;;;;;;;19.14;63.48;99189.41;5032994;28;19921;-77
2023/05/28 02:13:17;;;;;;;;;;;;;;;19.14;63.19;99195.56;5031287;28;19967;-77
2023/05/28 02:15:43;;;;;;;;;;;;;;;19.15;63.61;99199.84;5032512;28;19909;-77
2023/05/28 02:18:10;;;;;;;;;;;;;;;19.16;64.00;99204.16;5032440;28;19952;-75
2023/05/28 02:20:35;;;;;;;;;;;;;;;19.16;63.93;99204.16;5032242;28;20405;-75
2023/05/28 02:23:00;;;;;;;;;;;;;;;19.11;63.70;99212.09;5032361;28;19909;-75
2023/05/28 02:25:26;;;;;;;;;;;;;;;19.07;64.83;99208.28;5032446;28;19963;-76
2023/05/28 02:27:51;;;;;;;;;;;;;;;19.07;65.28;99204.78;5032463;28;20397;-76
2023/05/28 02:30:16;;;;;;;;;;;;;;;19.08;65.25;99201.88;5032692;28;19966;-76
2023/05/28 02:32:41;;;;;;;;;;;;;;;19.08;65.19;99206.41;5031256;28;19963;-76
2023/05/28 02:35:07;;;;;;;;;;;;;;;19.06;66.12;99212.00;5032622;28;19909;-76
2023/05/28 02:37:32;;;;;;;;;;;;;;;19.05;65.63;99210.38;5031463;28;19913;-77
2023/05/28 02:39:58;;;;;;;;;;;;;;;18.97;66.13;99224.16;5031754;28;19909;-77
2023/05/28 02:42:23;;;;;;;;;;;;;;;18.87;65.88;99218.63;5031697;28;20494;-77
2023/05/28 02:44:48;;;;;;;;;;;;;;;18.84;65.95;99222.59;5031920;28;19920;-77
2023/05/28 02:47:13;;;;;;;;;;;;;;;18.87;66.65;99226.66;5031922;28;20283;-77
2023/05/28 02:49:39;;;;;;;;;;;;;;;18.89;66.87;99224.53;5031847;28;19909;-77
2023/05/28 02:52:04;;;;;;;;;;;;;;;18.76;67.38;99224.84;5031842;28;20479;-77
2023/05/28 02:54:29;;;;;;;;;;;;;;;18.78;66.33;99233.44;5031666;28;19996;-75
2023/05/28 02:56:55;;;;;;;;;;;;;;;18.76;66.62;99224.84;5031555;28;20367;-76
2023/05/28 02:59:20;;;;;;;;;;;;;;;18.77;65.82;99232.63;5031781;28;19916;-76
2023/05/28 03:01:45;;;;;;;;;;;;;;;18.77;67.02;99231.81;5030391;28;20301;-76
2023/05/28 03:04:11;;;;;;;;;;;;;;;18.80;66.17;99231.34;5031546;28;19913;-76
2023/05/28 03:06:36;;;;;;;;;;;;;;;18.79;68.01;99230.53;5031996;28;20453;-75
2023/05/28 03:09:01;;;;;;;;;;;;;;;18.77;66.85;99234.47;5032035;28;19909;-75
2023/05/28 03:11:26;;;;;;;;;;;;;;;18.75;67.33;99234.72;5031876;28;20306;-74
2023/05/28 03:13:52;;;;;;;;;;;;;;;18.68;67.55;99236.72;5031843;28;20378;-75
2023/05/28 03:16:17;;;;;;;;;;;;;;;18.65;68.09;99237.19;5032049;28;19955;-75
2023/05/28 03:18:43;;;;;;;;;;;;;;;18.63;67.56;99240.13;5031822;28;20375;-75
2023/05/28 03:21:09;;;;;;;;;;;;;;;18.62;68.46;99232.34;5031805;28;19916;-75
2023/05/28 03:23:34;;;;;;;;;;;;;;;18.62;69.42;99224.31;5031691;28;19971;-75
2023/05/28 03:25:59;;;;;;;;;;;;;;;18.64;68.35;99228.38;5031908;28;20294;-75
2023/05/28 03:28:25;;;;;;;;;;;;;;;18.59;69.22;99228.25;5031801;28;19924;-75
2023/05/28 03:30:50;;;;;;;;;;;;;;;18.60;69.37;99221.03;5032171;28;19913;-76
2023/05/28 03:33:15;;;;;;;;;;;;;;;18.62;69.49;99226.97;5031906;28;20313;-76
2023/05/28 03:35:41;;;;;;;;;;;;;;;18.62;67.89;99230.47;5031558;28;20404;-76
2023/05/28 03:38:06;;;;;;;;;;;;;;;18.64;70.46;99233.72;5030313;28;19967;-76
2023/05/28 03:40:32;;;;;;;;;;;;;;;18.66;69.25;99233.47;5030340;28;20012;-77
2023/05/28 03:42:57;;;;;;;;;;;;;;;18.68;69.85;99228.69;5031661;28;19916;-76
2023/05/28 03:45:22;;;;;;;;;;;;;;;18.72;70.35;99232.53;5030435;28;19920;-76
2023/05/28 03:47:48;;;;;;;;;;;;;;;18.72;69.74;99240.56;5031378;28;19913;-76
2023/05/28 03:50:13;;;;;;;;;;;;;;;18.72;69.22;99237.88;5034083;28;19913;-76
2023/05/28 03:52:38;;;;;;;;;;;;;;;18.73;68.77;99234.16;5034895;28;19909;-77
2023/05/28 03:55:04;;;;;;;;;;;;;;;18.74;68.72;99235.78;5034924;28;20370;-77
2023/05/28 03:57:29;;;;;;;;;;;;;;;18.77;68.43;99234.47;5034945;28;19916;-76
2023/05/28 03:59:56;;;;;;;;;;;;;;;18.78;68.18;99236.91;5033585;28;20055;-76
2023/05/28 04:02:22;;;;;;;;;;;;;;;18.73;68.39;99234.97;5034887;28;19933;-76
2023/05/28 04:04:48;;;;;;;;;;;;;;;18.74;69.89;99238.44;5034960;28;19932;-77
2023/05/28 04:07:14;;;;;;;;;;;;;;;18.76;68.26;99235.53;5034738;28;19909;-76
2023/05/28 04:09:40;;;;;;;;;;;;;;;18.77;69.49;99237.16;5034602;28;19916;-76
2023/05/28 04:12:06;;;;;;;;;;;;;;;18.73;68.81;99242.19;5033235;28;20318;-76
2023/05/28 04:14:31;;;;;;;;;;;;;;;18.70;70.85;99239.97;5034437;28;19909;-76
2023/05/28 04:16:57;;;;;;;;;;;;;;;18.68;68.66;99248.25;5034456;28;19944;-76
2023/05/28 04:19:23;;;;;;;;;;;;;;;18.67;69.55;99249.28;5034266;28;19966;-76
2023/05/28 04:21:48;;;;;;;;;;;;;;;18.66;68.78;99250.34;5033017;28;20378;-77
2023/05/28 04:24:13;;;;;;;;;;;;;;;18.67;69.52;99243.94;5034351;28;20000;-77
2023/05/28 04:26:38;;;;;;;;;;;;;;;18.68;69.40;99244.75;5034707;28;20386;-77
2023/05/28 04:29:04;;;;;;;;;;;;;;;18.70;67.99;99251.50;5034333;28;19917;-76
2023/05/28 04:31:29;;;;;;;;;;;;;;;18.70;70.11;99248.00;5034324;28;20409;-76
2023/05/28 04:33:54;;;;;;;;;;;;;;;18.70;68.72;99254.16;5034405;28;19909;-76
2023/05/28 04:36:19;;;;;;;;;;;;;;;18.68;69.44;99256.25;5034638;28;19908;-73
2023/05/28 04:38:45;;;;;;;;;;;;;;;18.64;69.13;99260.47;5034515;28;19916;-77
2023/05/28 04:41:14;;;;;;;;;;;;;;;18.62;68.97;99256.41;5034232;28;20305;-77
2023/05/28 04:43:39;;;;;;;;;;;;;;;18.61;69.04;99250.25;5034178;28;19919;-77
2023/05/28 04:46:04;;;;;;;;;;;;;;;18.60;69.06;99259.28;5034084;28;19992;-76
2023/05/28 04:48:35;;;;;;;;;;;;;;;18.61;69.58;99260.94;5034224;28;19939;-75
2023/05/28 04:51:00;;;;;;;;;;;;;;;18.62;69.41;99256.41;5034070;28;19920;-77
2023/05/28 04:53:25;;;;;;;;;;;;;;;18.59;69.88;99268.34;5033721;28;19909;-77
2023/05/28 04:55:51;;;;;;;;;;;;;;;18.56;69.68;99263.44;5033689;28;19908;-76
2023/05/28 04:58:17;;;;;;;;;;;;;;;18.54;69.10;99262.88;5033659;28;20291;-76
2023/05/28 05:00:42;;;;;;;;;;;;;;;18.55;69.52;99258.34;5033090;28;19963;-76
2023/05/28 05:03:08;;;;;;;;;;;;;;;18.55;70.01;99264.50;5033995;28;19909;-76
2023/05/28 05:05:33;;;;;;;;;;;;;;;18.59;69.71;99268.34;5033567;28;20394;-77
2023/05/28 05:07:59;;;;;;;;;;;;;;;18.65;70.54;99266.63;5033693;28;19948;-76
2023/05/28 05:10:25;;;;;;;;;;;;;;;18.70;70.26;99264.03;5032114;28;19953;-76
2023/05/28 05:12:50;;;;;;;;;;;;;;;18.77;69.49;99270.06;5033326;28;19956;-77
2023/05/28 05:15:15;;;;;;;;;;;;;;;18.77;69.49;99272.75;5033389;28;20366;-76
2023/05/28 05:17:41;;;;;;;;;;;;;;;18.80;70.02;99266.91;5033350;28;19909;-75
2023/05/28 05:20:07;;;;;;;;;;;;;;;18.83;68.93;99265.63;5033250;28;19909;-76
2023/05/28 05:22:32;;;;;;;;;;;;;;;18.85;69.38;99267.00;5033268;28;19915;-77
2023/05/28 05:24:57;;;;;;;;;;;;;;;18.86;69.14;99263.28;5033236;28;20373;-75
2023/05/28 05:27:23;;;;;;;;;;;;;;;18.88;69.00;99261.19;5033062;28;20444;-77
2023/05/28 05:29:48;;;;;;;;;;;;;;;18.90;69.12;99259.09;5033225;28;19992;-76
2023/05/28 05:32:14;;;;;;;;;;;;;;;18.95;69.80;99261.84;5033248;28;20317;-75
2023/05/28 05:34:39;;;;;;;;;;;;;;;19.01;67.72;99260.91;5033020;28;19988;-76
2023/05/28 05:37:05;;;;;;;;;;;;;;;18.99;68.15;99268.34;5033563;28;20419;-76
2023/05/28 05:39:31;;;;;;;;;;;;;;;18.96;68.57;99268.03;5033721;28;19928;-75
2023/05/28 05:41:57;;;;;;;;;;;;;;;18.97;68.97;99270.47;5033280;28;20452;-76
2023/05/28 05:44:22;;;;;;;;;;;;;;;18.98;68.60;99272.09;5033496;28;19909;-75
2023/05/28 05:46:47;;;;;;;;;;;;;;;19.06;68.79;99270.88;5033274;28;19913;-75
2023/05/28 05:49:13;;;;;;;;;;;;;;;19.16;68.36;99272.94;5031915;28;19909;-76
2023/05/28 05:51:38;;;;;;;;;;;;;;;19.28;68.39;99279.84;5033342;28;19917;-77
2023/05/28 05:54:04;;;;;;;;;;;;;;;19.32;67.87;99273.00;5033132;28;19952;-74
2023/05/28 05:56:29;;;;;;;;;;;;;;;19.24;67.72;99277.91;5033579;28;19924;-75
2023/05/28 05:58:54;;;;;;;;;;;;;;;19.31;66.14;99278.56;5033170;28;19955;-75
2023/05/28 06:01:20;;;;;;;;;;;;;;;19.31;68.37;99274.00;5033416;28;19909;-76
2023/05/28 06:03:45;;;;;;;;;;;;;;;19.40;68.01;99277.13;5033279;28;20312;-76
2023/05/28 06:06:11;;;;;;;;;;;;;;;19.45;67.42;99277.22;5032541;28;20390;-75
2023/05/28 06:08:37;;;;;;;;;;;;;;;19.52;68.60;99275.22;5032267;28;19916;-76
2023/05/28 06:11:02;;;;;;;;;;;;;;;19.54;68.55;99270.44;5032258;28;19912;-76
2023/05/28 06:13:27;;;;;;;;;;;;;;;19.59;68.39;99275.88;5031338;28;20364;-76
2023/05/28 06:15:52;;;;;;;;;;;;;;;19.60;67.00;99260.63;5031041;28;19995;-77
2023/05/28 06:18:18;;;;;;;;;;;;;;;19.63;68.09;99273.53;5032358;28;19909;-76
2023/05/28 06:20:45;;;;;;;;;;;;;;;19.68;67.12;99273.59;5032228;28;20063;-76
2023/05/28 06:23:10;;;;;;;;;;;;;;;19.59;68.18;99275.88;5032197;28;19908;-76
2023/05/28 06:25:37;;;;;;;;;;;;;;;19.60;67.88;99268.66;5032127;28;20315;-77
2023/05/28 06:28:02;;;;;;;;;;;;;;;19.69;67.57;99272.56;5031954;28;19924;-76
2023/05/28 06:30:28;;;;;;;;;;;;;;;19.73;67.63;99275.56;5032197;28;19913;-76
2023/05/28 06:32:53;;;;;;;;;;;;;;;19.82;67.02;99277.56;5031964;28;20389;-75
2023/05/28 06:35:18;;;;;;;;;;;;;;;19.91;66.38;99278.78;5032098;28;19962;-77
2023/05/28 06:37:43;;;;;;;;;;;;;;;19.97;67.00;99285.03;5031898;28;20298;-77
2023/05/28 06:40:10;;;;;;;;;;;;;;;20.05;66.55;99278.44;5031801;28;19990;-75
2023/05/28 06:42:35;;;;;;;;;;;;;;;20.10;66.40;99279.38;5031978;28;20370;-77
2023/05/28 06:45:01;;;;;;;;;;;;;;;20.14;65.99;99285.84;5031874;28;19909;-77
2023/05/28 06:47:27;;;;;;;;;;;;;;;20.20;66.34;99278.69;5031960;28;19909;-77
2023/05/28 06:49:53;;;;;;;;;;;;;;;20.30;66.91;99276.16;5032182;28;19908;-76
2023/05/28 06:52:19;;;;;;;;;;;;;;;20.39;65.87;99279.22;5031727;28;20043;-76
2023/05/28 06:54:44;;;;;;;;;;;;;;;20.40;66.28;99272.81;5031537;28;19913;-76
2023/05/28 06:57:09;;;;;;;;;;;;;;;20.46;65.52;99272.63;5030541;28;19963;-77
2023/05/28 06:59:35;;;;;;;;;;;;;;;20.53;64.81;99273.25;5031807;28;19908;-76
2023/05/28 07:02:00;;;;;;;;;;;;;;;20.54;65.32;99272.22;5031752;28;19909;-76
2023/05/28 07:04:25;;;;;;;;;;;;;;;20.54;63.66;99269.53;5031544;28;19916;-76
2023/05/28 07:06:51;;;;;;;;;;;;;;;20.45;64.69;99273.69;5031583;28;19913;-77
2023/05/28 07:09:17;;;;;;;;;;;;;;;20.47;64.54;99266.22;5031538;28;19916;-76
2023/05/28 07:11:42;;;;;;;;;;;;;;;20.53;64.94;99269.78;5031621;28;20435;-77
2023/05/28 07:14:07;;;;;;;;;;;;;;;19.84;64.47;99154.91;5030373;28;19908;-76
2023/05/28 07:16:33;;;;;;;;;;;;;;;20.60;64.30;99268.53;5031624;28;19909;-76
2023/05/28 07:18:58;;;;;;;;;;;;;;;20.64;64.29;99271.50;5031789;28;19913;-77
2023/05/28 07:21:23;;;;;;;;;;;;;;;20.55;64.70;99265.78;5031896;28;20366;-77
2023/05/28 07:23:48;;;;;;;;;;;;;;;20.47;63.93;99274.25;5031012;28;19913;-77
2023/05/28 07:26:14;;;;;;;;;;;;;;;20.43;64.55;99272.31;5035566;28;19909;-77
2023/05/28 07:28:39;;;;;;;;;;;;;;;20.39;64.65;99268.50;5035364;28;20022;-77
2023/05/28 07:31:05;;;;;;;;;;;;;;;20.34;64.19;99269.22;5035356;28;20392;-77
2023/05/28 07:33:30;;;;;;;;;;;;;;;20.29;64.81;99267.28;5034018;28;19971;-77
2023/05/28 07:35:55;;;;;;;;;;;;;;;20.24;64.93;99271.78;5035491;28;19905;-77
2023/05/28 07:38:20;;;;;;;;;;;;;;;20.20;65.33;99273.34;5035600;28;19909;-77
2023/05/28 07:40:46;;;;;;;;;;;;;;;20.19;65.65;99271.72;5035442;28;20378;-76
2023/05/28 07:43:11;;;;;;;;;;;;;;;20.15;65.88;99268.72;5035631;28;19909;-76
2023/05/28 07:45:36;;;;;;;;;;;;;;;20.17;65.22;99261.22;5035447;28;19996;-76
2023/05/28 07:48:02;;;;;;;;;;;;;;;20.18;64.60;99264.72;5036015;28;19948;-77
2023/05/28 07:50:28;;;;;;;;;;;;;;;20.09;65.57;99260.84;5035660;28;19913;-76
2023/05/28 07:52:53;;;;;;;;;;;;;;;20.13;65.61;99262.78;5035473;28;20461;-76
2023/05/28 07:55:18;;;;;;;;;;;;;;;20.18;64.97;99251.31;5035803;28;19913;-77
2023/05/28 07:57:44;;;;;;;;;;;;;;;20.24;65.32;99251.16;5035254;28;20283;-75
2023/05/28 08:00:14;;;;;;;;;;;;;;;20.31;65.10;99259.00;5033943;28;19992;-75
2023/05/28 08:02:40;;;;;;;;;;;;;;;20.30;64.83;99255.50;5034010;28;20313;-76
2023/05/28 08:05:05;;;;;;;;;;;;;;;20.33;65.49;99262.25;5035165;28;19908;-76
2023/05/28 08:07:31;;;;;;;;;;;;;;;20.30;65.18;99258.19;5034486;28;20001;-76
2023/05/28 08:09:57;;;;;;;;;;;;;;;20.33;64.66;99269.47;5034410;28;19909;-76
2023/05/28 08:12:22;;;;;;;;;;;;;;;20.38;64.72;99256.13;5034402;28;20007;-76
2023/05/28 08:14:47;;;;;;;;;;;;;;;20.42;64.43;99263.47;5034408;28;19967;-77
2023/05/28 08:17:12;;;;;;;;;;;;;;;20.45;64.17;99267.53;5049763;28;19947;-76
2023/05/28 08:19:38;;;;;;;;;;;;;;;20.48;64.22;99275.06;5034386;28;19915;-76
2023/05/28 08:22:04;;;;;;;;;;;;;;;20.49;64.19;99271.34;5034565;28;19909;-76
2023/05/28 08:24:30;;;;;;;;;;;;;;;20.45;64.38;99268.34;5034327;28;20405;-76
2023/05/28 08:26:55;;;;;;;;;;;;;;;20.48;64.59;99261.66;5034289;28;19909;-77
2023/05/28 08:29:21;;;;;;;;;;;;;;;20.69;64.36;99263.53;5034060;28;19917;-76
2023/05/28 08:31:46;;;;;;;;;;;;;;;20.90;64.30;99261.91;5034249;28;19920;-76
2023/05/28 08:34:11;;;;;;;;;;;;;;;21.13;63.40;99256.25;5032799;28;19909;-76
2023/05/28 08:39:20;;;;;;;;;;;;;;;21.45;62.25;99248.25;5033867;28;19963;-77
2023/05/28 08:41:46;;;;;;;;;;;;;;;21.39;62.54;99251.13;5033970;28;19948;-77
2023/05/28 08:44:11;;;;;;;;;;;;;;;21.48;61.76;99255.78;5033919;28;19908;-77
2023/05/28 08:46:36;;;;;;;;;;;;;;;21.46;62.14;99257.09;5034225;28;19909;-77
2023/05/28 08:49:02;;;;;;;;;;;;;;;21.44;61.81;99251.19;5033913;28;19909;-77
2023/05/28 08:51:32;;;;;;;;;;;;;;;21.33;61.97;99262.91;5033868;28;19991;-77
2023/05/28 08:53:59;;;;;;;;;;;;;;;21.23;62.58;99264.44;5034472;28;19909;-75
2023/05/28 08:56:25;;;;;;;;;;;;;;;21.20;62.78;99261.41;5034788;28;19909;-76
2023/05/28 08:58:51;;;;;;;;;;;;;;;21.10;63.01;99267.50;5034122;28;19912;-77
2023/05/28 09:01:16;;;;;;;;;;;;;;;21.02;63.03;99270.63;5034384;28;19909;-76
2023/05/28 09:03:41;;;;;;;;;;;;;;;21.00;64.03;99270.06;5034285;28;20329;-76
2023/05/28 09:06:07;;;;;;;;;;;;;;;21.02;63.74;99270.63;5034036;28;20005;-77
2023/05/28 09:08:33;;;;;;;;;;;;;;;21.14;63.70;99268.59;5033542;28;19916;-76
2023/05/28 09:11:08;;;;;;;;;;;;;;;21.29;62.95;99276.03;5033378;28;20313;-77
2023/05/28 09:13:33;;;;;;;;;;;;;;;21.29;62.15;99264.47;5033305;28;19909;-77
2023/05/28 09:15:59;;;;;;;;;;;;;;;21.24;62.63;99259.88;5033342;28;20393;-77
2023/05/28 09:18:24;;;;;;;;;;;;;;;21.30;62.92;99258.84;5033363;28;19909;-77
2023/05/28 09:20:49;;;;;;;;;;;;;;;21.35;62.85;99258.09;5033246;28;19909;-76
2023/05/28 09:23:18;;;;;;;;;;;;;;;21.30;62.68;99256.16;5033801;28;20376;-76
2023/05/28 09:25:44;;;;;;;;;;;;;;;21.33;62.74;99252.16;5033124;28;19909;-75
2023/05/28 09:28:14;;;;;;;;;;;;;;;21.42;62.35;99253.31;5031634;28;20524;-77
2023/05/28 09:30:41;;;;;;;;;;;;;;;21.44;62.27;99256.56;5032997;28;19913;-76
2023/05/28 09:33:07;;;;;;;;;;;;;;;21.51;62.36;99246.41;5031660;28;19909;-77
2023/05/28 09:35:32;;;;;;;;;;;;;;;21.63;62.32;99249.75;5033614;28;20392;-77
2023/05/28 09:38:07;;;;;;;;;;;;;;;22.01;61.45;99256.72;5032924;28;19908;-76
2023/05/28 09:40:45;;;;;;;;;;;;;;;22.18;61.29;99246.63;5032856;28;20007;-77
2023/05/28 09:43:10;;;;;;;;;;;;;;;22.32;61.27;99246.19;5031585;28;20368;-76
2023/05/28 09:45:36;;;;;;;;;;;;;;;22.52;60.15;99251.66;5031550;28;19912;-76
2023/05/28 09:48:01;;;;;;;;;;;;;;;22.54;60.09;99241.44;5032511;28;19909;-77
2023/05/28 09:50:27;;;;;;;;;;;;;;;22.47;60.06;99246.25;5032640;28;20331;-77
2023/05/28 09:52:54;;;;;;;;;;;;;;;22.31;60.83;99245.38;5032756;28;20392;-76
2023/05/28 09:55:23;;;;;;;;;;;;;;;22.25;60.90;99237.53;5045057;28;20294;-76
2023/05/28 09:57:58;;;;;;;;;;;;;;;22.30;60.93;99240.28;5053217;28;19943;-76
2023/05/28 10:00:30;;;;;;;;;;;;;;;22.62;60.31;99235.56;5052921;28;19915;-76
2023/05/28 10:03:00;;;;;;;;;;;;;;;23.20;59.07;99230.09;5052957;28;19909;-76
2023/05/28 10:05:26;;;;;;;;;;;;;;;23.29;58.13;99228.47;5053723;28;19989;-76
2023/05/28 10:07:52;;;;;;;;;;;;;;;23.10;58.03;99222.81;5052149;28;20397;-76
2023/05/28 10:10:19;;;;;;;;;;;;;;;22.86;58.84;99209.00;5051245;28;20011;-76
2023/05/28 10:12:45;;;;;;;;;;;;;;;22.75;59.03;99220.78;5052783;28;19955;-76
2023/05/28 10:15:11;;;;;;;;;;;;;;;22.61;59.26;99225.06;5052524;28;19915;-76
2023/05/28 10:17:37;;;;;;;;;;;;;;;22.66;59.12;99233.16;5052282;28;19909;-76
2023/05/28 10:20:04;;;;;;;;;;;;;;;22.47;59.83;99225.56;5052547;28;20374;-75
2023/05/28 10:22:30;;;;;;;;;;;;;;;22.43;59.73;99231.72;5052622;28;19914;-76
2023/05/28 10:24:56;;;;;;;;;;;;;;;22.32;60.39;99222.00;5052365;28;19909;-77
2023/05/28 10:27:28;;;;;;;;;;;;;;;22.17;61.33;99218.13;5050920;28;19963;-76
2023/05/28 10:29:53;;;;;;;;;;;;;;;22.04;61.79;99207.84;5052854;28;20362;-76
2023/05/28 10:32:18;;;;;;;;;;;;;;;21.95;61.92;99212.06;5053041;28;19916;-77
2023/05/28 10:34:44;;;;;;;;;;;;;;;21.84;62.58;99205.00;5052465;28;20015;-77
2023/05/28 10:37:10;;;;;;;;;;;;;;;21.80;63.84;99199.34;5051059;28;20372;-77
2023/05/28 10:39:38;;;;;;;;;;;;;;;21.92;62.49;99198.34;5052340;28;19920;-76
2023/05/28 10:42:05;;;;;;;;;;;;;;;21.98;62.40;99198.09;5052388;28;19909;-77
2023/05/28 10:44:50;;;;;;;;;;;;;;;22.06;62.54;99192.25;5052173;28;19909;-77
2023/05/28 10:47:19;;;;;;;;;;;;;;;22.08;61.41;99190.13;5052131;28;19965;-77
2023/05/28 10:49:57;;;;;;;;;;;;;;;22.16;61.66;99192.31;5052006;28;19913;-77
2023/05/28 10:52:24;;;;;;;;;;;;;;;22.28;61.07;99183.22;5051685;28;19913;-76
2023/05/28 10:54:51;;;;;;;;;;;;;;;22.25;61.88;99175.66;5050263;28;19952;-75
2023/05/28 10:57:17;;;;;;;;;;;;;;;22.22;61.25;99177.00;5051755;28;19915;-76
2023/05/28 10:59:42;;;;;;;;;;;;;;;22.15;61.29;99185.31;5056354;28;20420;-76
2023/05/28 11:02:08;;;;;;;;;;;;;;;22.19;62.43;99169.47;5058281;28;19955;-76
2023/05/28 11:04:34;;;;;;;;;;;;;;;22.54;59.56;99174.19;5056876;28;19913;-76
2023/05/28 11:06:59;;;;;;;;;;;;;;;22.89;59.04;99168.09;5058455;28;19985;-77
2023/05/28 11:09:25;;;;;;;;;;;;;;;23.29;58.70;99172.72;5058430;28;20315;-77
2023/05/28 11:11:50;;;;;;;;;;;;;;;23.95;57.32;99171.84;5058751;28;19912;-76
2023/05/28 11:14:16;;;;;;;;;;;;;;;24.54;56.30;99185.41;5059202;28;20347;-76
2023/05/28 11:16:41;;;;;;;;;;;;;;;24.56;55.33;99171.63;5058128;28;20381;-77
2023/05/28 11:19:10;;;;;;;;;;;;;;;24.36;55.33;99165.22;5058495;28;19931;-76
2023/05/28 11:21:51;;;;;;;;;;;;;;;24.18;55.96;99165.81;5058055;28;20373;-76
2023/05/28 11:24:17;;;;;;;;;;;;;;;24.00;56.41;99169.13;5057989;28;19908;-77
2023/05/28 11:26:42;;;;;;;;;;;;;;;23.66;55.68;99175.13;5058089;28;19912;-76
2023/05/28 11:29:08;;;;;;;;;;;;;;;23.05;55.54;99161.66;5057828;28;19917;-77
2023/05/28 11:31:37;;;;;;;;;;;;;;;22.88;56.70;99171.84;5056530;28;20356;-77
2023/05/28 11:34:03;;;;;;;;;;;;;;;22.60;57.26;99178.50;5057808;28;19909;-75
2023/05/28 11:36:28;;;;;;;;;;;;;;;22.36;57.40;99178.16;5058057;28;19962;-75
2023/05/28 11:39:00;;;;;;;;;;;;;;;22.18;59.65;99160.59;5056805;28;20009;-76
2023/05/28 11:41:26;;;;;;;;;;;;;;;21.83;59.31;99165.78;5058013;28;19909;-76
2023/05/28 11:43:52;;;;;;;;;;;;;;;21.63;60.61;99174.53;5057902;28;19909;-76
2023/05/28 11:46:17;;;;;;;;;;;;;;;21.47;62.39;99172.78;5056598;28;19915;-76
2023/05/28 11:48:42;;;;;;;;;;;;;;;21.42;62.38;99172.72;5058137;28;19909;-76
2023/05/28 11:51:07;;;;;;;;;;;;;;;21.32;62.83;99180.72;5057849;28;19952;-75
2023/05/28 11:53:39;;;;;;;;;;;;;;;21.28;63.71;99171.56;5057763;28;20397;-76
2023/05/28 11:56:05;;;;;;;;;;;;;;;21.37;65.18;99183.44;5057937;28;19905;-75
2023/05/28 11:58:30;;;;;;;;;;;;;;;21.68;62.84;99179.13;5057812;28;20389;-75
2023/05/28 12:00:56;;;;;;;;;;;;;;;21.89;63.28;99181.66;5057689;28;19966;-75
2023/05/28 12:03:24;;;;;;;;;;;;;;;22.06;62.71;99181.50;5057632;28;19908;-75
2023/05/28 12:05:50;;;;;;;;;;;;;;;22.13;61.27;99173.22;5057652;28;19908;-76
2023/05/28 12:08:17;;;;;;;;;;;;;;;22.21;61.76;99186.16;5057951;28;19959;-77
2023/05/28 12:10:42;;;;;;;;;;;;;;;22.35;62.37;99186.50;5056333;28;19913;-77
2023/05/28 12:13:07;;;;;;;;;;;;;;;22.47;62.00;99189.78;5054648;28;20406;-76
2023/05/28 12:15:33;;;;;;;;;;;;;;;22.49;62.58;99183.06;5053263;28;19995;-76
2023/05/28 12:18:00;;;;;;;;;;;;;;;22.59;62.28;99176.09;5054321;28;19908;-75
2023/05/28 12:20:29;;;;;;;;;;;;;;;22.55;62.22;99175.81;5054669;28;19909;-75
2023/05/28 12:23:08;;;;;;;;;;;;;;;22.46;61.54;99164.75;5055102;28;20398;-76
2023/05/28 12:25:37;;;;;;;;;;;;;;;22.45;61.88;99168.50;5054657;28;19909;-75
2023/05/28 12:28:02;;;;;;;;;;;;;;;22.87;61.07;99167.56;5054343;28;20016;-76
2023/05/28 12:30:27;;;;;;;;;;;;;;;23.40;59.83;99160.84;5053270;28;20011;-76
2023/05/28 12:32:52;;;;;;;;;;;;;;;23.95;58.65;99158.38;5054534;28;19916;-76
2023/05/28 12:35:18;;;;;;;;;;;;;;;24.21;57.49;99156.38;5054491;28;20000;-76
2023/05/28 12:37:43;;;;;;;;;;;;;;;24.40;57.17;99166.28;5054128;28;20385;-76
2023/05/28 12:40:09;;;;;;;;;;;;;;;24.50;56.99;99164.63;5052803;28;20054;-76
2023/05/28 12:42:34;;;;;;;;;;;;;;;24.38;56.98;99159.56;5053964;28;19908;-76
2023/05/28 12:45:00;;;;;;;;;;;;;;;24.35;56.64;99152.03;5054115;28;19913;-76